sensor_id;sensor_type;location;lat;lon;timestamp;P1;durP1;ratioP1;P2;durP2;ratioP2
18267;SDS011;9260;49.998;19.880;2022-12-07T00:06:31;185.63;;;88.13;;
18267;SDS011;9260;49.998;19.880;2022-12-07T00:16:38;187.47;;;89.13;;
18267;SDS011;9260;49.998;19.880;2022-12-07T00:26:42;184.90;;;84.30;;
18267;SDS011;9260;49.998;19.880;2022-12-07T00:36:48;186.60;;;85.60;;
18267;SDS011;9260;49.998;19.880;2022-12-07T00:46:53;186.47;;;89.30;;
18267;SDS011;9260;49.998;19.880;2022-12-07T00:56:58;187.37;;;88.03;;
18267;SDS011;9260;49.998;19.880;2022-12-07T01:07:03;181.90;;;85.10;;
18267;SDS011;9260;49.998;19.880;2022-12-07T01:17:08;185.53;;;84.80;;
18267;SDS011;9260;49.998;19.880;2022-12-07T01:27:12;192.10;;;87.97;;
18267;SDS011;9260;49.998;19.880;2022-12-07T01:37:18;194.73;;;102.87;;
18267;SDS011;9260;49.998;19.880;2022-12-07T01:47:21;197.40;;;104.03;;
18267;SDS011;9260;49.998;19.880;2022-12-07T01:57:27;190.90;;;100.53;;
18267;SDS011;9260;49.998;19.880;2022-12-07T02:07:31;188.97;;;101.03;;
18267;SDS011;9260;49.998;19.880;2022-12-07T02:17:40;193.43;;;105.37;;
18267;SDS011;9260;49.998;19.880;2022-12-07T02:27:56;194.17;;;101.83;;
18267;SDS011;9260;49.998;19.880;2022-12-07T02:38:10;197.27;;;102.87;;
18267;SDS011;9260;49.998;19.880;2022-12-07T02:48:19;195.90;;;105.23;;
18267;SDS011;9260;49.998;19.880;2022-12-07T02:58:27;189.63;;;96.80;;
18267;SDS011;9260;49.998;19.880;2022-12-07T03:08:46;197.87;;;104.63;;
18267;SDS011;9260;49.998;19.880;2022-12-07T03:19:01;194.60;;;102.63;;
18267;SDS011;9260;49.998;19.880;2022-12-07T03:29:09;200.73;;;102.20;;
18267;SDS011;9260;49.998;19.880;2022-12-07T03:39:22;196.20;;;109.07;;
18267;SDS011;9260;49.998;19.880;2022-12-07T03:49:34;191.60;;;103.20;;
18267;SDS011;9260;49.998;19.880;2022-12-07T03:59:45;201.20;;;105.90;;
18267;SDS011;9260;49.998;19.880;2022-12-07T04:09:50;200.27;;;106.70;;
18267;SDS011;9260;49.998;19.880;2022-12-07T04:19:57;201.60;;;104.63;;
18267;SDS011;9260;49.998;19.880;2022-12-07T04:30:02;206.27;;;108.73;;
18267;SDS011;9260;49.998;19.880;2022-12-07T04:40:08;198.53;;;104.93;;
18267;SDS011;9260;49.998;19.880;2022-12-07T04:50:14;202.77;;;105.67;;
18267;SDS011;9260;49.998;19.880;2022-12-07T05:00:19;209.70;;;107.23;;
18267;SDS011;9260;49.998;19.880;2022-12-07T05:10:23;207.77;;;107.23;;
18267;SDS011;9260;49.998;19.880;2022-12-07T05:20:28;200.17;;;104.47;;
18267;SDS011;9260;49.998;19.880;2022-12-07T05:30:32;188.10;;;96.33;;
18267;SDS011;9260;49.998;19.880;2022-12-07T05:40:37;188.83;;;97.17;;
18267;SDS011;9260;49.998;19.880;2022-12-07T05:50:41;190.00;;;101.17;;
18267;SDS011;9260;49.998;19.880;2022-12-07T06:00:46;189.33;;;94.60;;
18267;SDS011;9260;49.998;19.880;2022-12-07T06:10:52;189.07;;;99.53;;
18267;SDS011;9260;49.998;19.880;2022-12-07T06:21:17;192.87;;;102.37;;
18267;SDS011;9260;49.998;19.880;2022-12-07T06:31:20;192.73;;;103.93;;
18267;SDS011;9260;49.998;19.880;2022-12-07T06:41:26;186.57;;;93.23;;
18267;SDS011;9260;49.998;19.880;2022-12-07T06:51:30;191.97;;;99.97;;
18267;SDS011;9260;49.998;19.880;2022-12-07T07:01:35;192.90;;;98.93;;
18267;SDS011;9260;49.998;19.880;2022-12-07T07:11:39;185.10;;;96.20;;
18267;SDS011;9260;49.998;19.880;2022-12-07T07:21:44;190.57;;;98.10;;
18267;SDS011;9260;49.998;19.880;2022-12-07T07:31:48;194.47;;;100.50;;
18267;SDS011;9260;49.998;19.880;2022-12-07T07:41:53;194.63;;;101.97;;
18267;SDS011;9260;49.998;19.880;2022-12-07T07:52:00;190.00;;;96.93;;
18267;SDS011;9260;49.998;19.880;2022-12-07T08:02:07;195.57;;;105.33;;
18267;SDS011;9260;49.998;19.880;2022-12-07T08:12:17;190.00;;;102.27;;
18267;SDS011;9260;49.998;19.880;2022-12-07T08:22:22;191.63;;;100.87;;
18267;SDS011;9260;49.998;19.880;2022-12-07T08:32:25;199.20;;;109.00;;
18267;SDS011;9260;49.998;19.880;2022-12-07T08:42:31;185.20;;;87.80;;
18267;SDS011;9260;49.998;19.880;2022-12-07T08:52:39;191.47;;;91.17;;
18267;SDS011;9260;49.998;19.880;2022-12-07T09:02:45;187.33;;;89.97;;
18267;SDS011;9260;49.998;19.880;2022-12-07T09:12:49;184.80;;;90.70;;
18267;SDS011;9260;49.998;19.880;2022-12-07T09:22:54;187.57;;;92.13;;
18267;SDS011;9260;49.998;19.880;2022-12-07T09:32:58;184.27;;;86.80;;
18267;SDS011;9260;49.998;19.880;2022-12-07T09:43:03;184.83;;;88.73;;
18267;SDS011;9260;49.998;19.880;2022-12-07T09:53:08;181.87;;;84.43;;
18267;SDS011;9260;49.998;19.880;2022-12-07T10:03:17;187.00;;;90.47;;
18267;SDS011;9260;49.998;19.880;2022-12-07T10:13:22;186.80;;;91.40;;
18267;SDS011;9260;49.998;19.880;2022-12-07T10:23:39;187.33;;;92.43;;
18267;SDS011;9260;49.998;19.880;2022-12-07T10:33:48;186.13;;;89.37;;
18267;SDS011;9260;49.998;19.880;2022-12-07T10:43:56;192.87;;;92.27;;
18267;SDS011;9260;49.998;19.880;2022-12-07T10:54:03;180.20;;;82.50;;
18267;SDS011;9260;49.998;19.880;2022-12-07T11:04:20;187.53;;;89.17;;
18267;SDS011;9260;49.998;19.880;2022-12-07T11:14:34;186.37;;;85.60;;
18267;SDS011;9260;49.998;19.880;2022-12-07T11:24:48;188.93;;;86.77;;
18267;SDS011;9260;49.998;19.880;2022-12-07T11:35:00;188.93;;;86.90;;
18267;SDS011;9260;49.998;19.880;2022-12-07T11:45:14;185.13;;;84.67;;
18267;SDS011;9260;49.998;19.880;2022-12-07T11:55:24;192.10;;;86.83;;
18267;SDS011;9260;49.998;19.880;2022-12-07T12:05:36;187.73;;;86.80;;
18267;SDS011;9260;49.998;19.880;2022-12-07T12:15:49;191.57;;;88.27;;
18267;SDS011;9260;49.998;19.880;2022-12-07T12:26:15;187.70;;;90.37;;
18267;SDS011;9260;49.998;19.880;2022-12-07T12:36:24;198.93;;;89.97;;
18267;SDS011;9260;49.998;19.880;2022-12-07T12:56:55;177.30;;;80.30;;
18267;SDS011;9260;49.998;19.880;2022-12-07T13:07:11;179.57;;;83.77;;
18267;SDS011;9260;49.998;19.880;2022-12-07T13:28:10;175.90;;;81.50;;
18267;SDS011;9260;49.998;19.880;2022-12-07T13:38:22;179.23;;;82.17;;
18267;SDS011;9260;49.998;19.880;2022-12-07T13:48:32;185.27;;;80.50;;
18267;SDS011;9260;49.998;19.880;2022-12-07T13:58:45;180.10;;;80.63;;
18267;SDS011;9260;49.998;19.880;2022-12-07T14:08:50;188.27;;;88.93;;
18267;SDS011;9260;49.998;19.880;2022-12-07T14:29:51;192.20;;;92.87;;
18267;SDS011;9260;49.998;19.880;2022-12-07T14:39:54;183.93;;;85.53;;
18267;SDS011;9260;49.998;19.880;2022-12-07T14:50:00;179.77;;;86.87;;
18267;SDS011;9260;49.998;19.880;2022-12-07T15:00:08;188.10;;;89.97;;
18267;SDS011;9260;49.998;19.880;2022-12-07T15:10:18;182.53;;;90.00;;
18267;SDS011;9260;49.998;19.880;2022-12-07T15:20:25;182.70;;;84.83;;
18267;SDS011;9260;49.998;19.880;2022-12-07T15:30:30;186.30;;;85.00;;
18267;SDS011;9260;49.998;19.880;2022-12-07T15:40:34;188.33;;;90.93;;
18267;SDS011;9260;49.998;19.880;2022-12-07T15:50:40;186.23;;;92.87;;
18267;SDS011;9260;49.998;19.880;2022-12-07T16:00:44;193.87;;;100.03;;
18267;SDS011;9260;49.998;19.880;2022-12-07T16:10:49;195.70;;;95.53;;
18267;SDS011;9260;49.998;19.880;2022-12-07T16:20:53;190.97;;;95.23;;
18267;SDS011;9260;49.998;19.880;2022-12-07T16:31:01;195.00;;;92.30;;
18267;SDS011;9260;49.998;19.880;2022-12-07T16:41:07;195.40;;;88.80;;
18267;SDS011;9260;49.998;19.880;2022-12-07T16:51:13;189.70;;;88.33;;
18267;SDS011;9260;49.998;19.880;2022-12-07T17:01:18;189.13;;;90.23;;
18267;SDS011;9260;49.998;19.880;2022-12-07T17:11:26;182.47;;;87.87;;
18267;SDS011;9260;49.998;19.880;2022-12-07T17:21:33;192.70;;;109.57;;
18267;SDS011;9260;49.998;19.880;2022-12-07T17:31:38;177.33;;;81.07;;
18267;SDS011;9260;49.998;19.880;2022-12-07T17:41:51;182.57;;;88.13;;
18267;SDS011;9260;49.998;19.880;2022-12-07T17:52:13;179.87;;;84.03;;
18267;SDS011;9260;49.998;19.880;2022-12-07T18:02:35;187.13;;;86.20;;
18267;SDS011;9260;49.998;19.880;2022-12-07T18:12:40;180.40;;;87.13;;
18267;SDS011;9260;49.998;19.880;2022-12-07T18:22:52;182.23;;;86.83;;
18267;SDS011;9260;49.998;19.880;2022-12-07T18:32:57;178.67;;;82.13;;
18267;SDS011;9260;49.998;19.880;2022-12-07T18:43:01;182.87;;;88.43;;
18267;SDS011;9260;49.998;19.880;2022-12-07T18:53:06;182.53;;;86.93;;
18267;SDS011;9260;49.998;19.880;2022-12-07T19:03:10;180.87;;;85.93;;
18267;SDS011;9260;49.998;19.880;2022-12-07T19:13:15;184.37;;;83.13;;
18267;SDS011;9260;49.998;19.880;2022-12-07T19:23:19;180.33;;;86.00;;
18267;SDS011;9260;49.998;19.880;2022-12-07T19:33:27;189.93;;;84.83;;
18267;SDS011;9260;49.998;19.880;2022-12-07T19:43:31;193.47;;;92.33;;
18267;SDS011;9260;49.998;19.880;2022-12-07T19:53:36;190.03;;;90.63;;
18267;SDS011;9260;49.998;19.880;2022-12-07T20:03:40;193.70;;;100.87;;
18267;SDS011;9260;49.998;19.880;2022-12-07T20:13:45;186.10;;;91.23;;
18267;SDS011;9260;49.998;19.880;2022-12-07T20:23:49;188.90;;;91.43;;
18267;SDS011;9260;49.998;19.880;2022-12-07T20:33:54;178.47;;;86.33;;
18267;SDS011;9260;49.998;19.880;2022-12-07T20:44:00;182.53;;;87.30;;
18267;SDS011;9260;49.998;19.880;2022-12-07T20:54:05;183.37;;;89.00;;
18267;SDS011;9260;49.998;19.880;2022-12-07T21:04:10;184.80;;;89.37;;
18267;SDS011;9260;49.998;19.880;2022-12-07T21:14:16;180.03;;;84.27;;
18267;SDS011;9260;49.998;19.880;2022-12-07T21:24:20;178.10;;;89.33;;
18267;SDS011;9260;49.998;19.880;2022-12-07T21:34:25;179.13;;;87.30;;
18267;SDS011;9260;49.998;19.880;2022-12-07T21:44:29;178.67;;;87.23;;
18267;SDS011;9260;49.998;19.880;2022-12-07T21:54:34;181.43;;;91.33;;
18267;SDS011;9260;49.998;19.880;2022-12-07T22:04:39;178.90;;;83.77;;
18267;SDS011;9260;49.998;19.880;2022-12-07T22:14:44;181.47;;;83.83;;
18267;SDS011;9260;49.998;19.880;2022-12-07T22:25:06;172.67;;;78.77;;
18267;SDS011;9260;49.998;19.880;2022-12-07T22:35:13;189.17;;;86.43;;
18267;SDS011;9260;49.998;19.880;2022-12-07T22:45:17;180.47;;;86.33;;
18267;SDS011;9260;49.998;19.880;2022-12-07T22:55:22;179.70;;;84.07;;
18267;SDS011;9260;49.998;19.880;2022-12-07T23:05:26;176.03;;;84.40;;
18267;SDS011;9260;49.998;19.880;2022-12-07T23:15:33;176.20;;;80.77;;
18267;SDS011;9260;49.998;19.880;2022-12-07T23:25:38;171.17;;;79.43;;
18267;SDS011;9260;49.998;19.880;2022-12-07T23:35:44;175.83;;;81.73;;
18267;SDS011;9260;49.998;19.880;2022-12-07T23:45:48;177.33;;;81.87;;
18267;SDS011;9260;49.998;19.880;2022-12-07T23:55:53;180.83;;;83.77;;
